sensor_id;sensor_type;location;lat;lon;timestamp;temperature;humidity
67893;DHT22;54688;52.376;16.744;2024-01-30T00:00:35;-1.5;81.3
67893;DHT22;54688;52.376;16.744;2024-01-30T00:04:18;-1.5;81.2
67893;DHT22;54688;52.376;16.744;2024-01-30T00:07:20;-1.5;81.2
67893;DHT22;54688;52.376;16.744;2024-01-30T00:10:22;-1.5;81
67893;DHT22;54688;52.376;16.744;2024-01-30T00:13:25;-1.5;81.2
67893;DHT22;54688;52.376;16.744;2024-01-30T00:16:27;-1.5;81.3
67893;DHT22;54688;52.376;16.744;2024-01-30T00:19:29;-1.6;80.7
67893;DHT22;54688;52.376;16.744;2024-01-30T00:22:31;-1.6;80.6
67893;DHT22;54688;52.376;16.744;2024-01-30T00:25:33;-1.7;80.4
67893;DHT22;54688;52.376;16.744;2024-01-30T00:28:36;-1.7;80.4
67893;DHT22;54688;52.376;16.744;2024-01-30T00:31:38;-1.7;80.2
67893;DHT22;54688;52.376;16.744;2024-01-30T00:34:41;-1.8;80.9
67893;DHT22;54688;52.376;16.744;2024-01-30T00:37:43;-1.8;80.4
67893;DHT22;54688;52.376;16.744;2024-01-30T00:40:46;-1.8;80.8
67893;DHT22;54688;52.376;16.744;2024-01-30T00:43:48;-1.8;80.8
67893;DHT22;54688;52.376;16.744;2024-01-30T00:46:50;-1.9;80.5
67893;DHT22;54688;52.376;16.744;2024-01-30T00:49:52;-1.9;80.6
67893;DHT22;54688;52.376;16.744;2024-01-30T00:52:55;-1.9;80.4
67893;DHT22;54688;52.376;16.744;2024-01-30T00:55:57;-1.9;80.4
67893;DHT22;54688;52.376;16.744;2024-01-30T00:58:59;-2;80.2
67893;DHT22;54688;52.376;16.744;2024-01-30T01:02:02;-2;80.3
67893;DHT22;54688;52.376;16.744;2024-01-30T01:05:05;-2.1;80.4
67893;DHT22;54688;52.376;16.744;2024-01-30T01:08:07;-2.1;80.4
67893;DHT22;54688;52.376;16.744;2024-01-30T01:11:10;-2.1;80.4
67893;DHT22;54688;52.376;16.744;2024-01-30T01:14:12;-2.1;80.5
67893;DHT22;54688;52.376;16.744;2024-01-30T01:17:13;-2.1;80.5
67893;DHT22;54688;52.376;16.744;2024-01-30T01:20:16;-2.2;80.7
67893;DHT22;54688;52.376;16.744;2024-01-30T01:23:18;-2.1;81.4
67893;DHT22;54688;52.376;16.744;2024-01-30T01:26:20;-2;82.1
67893;DHT22;54688;52.376;16.744;2024-01-30T01:29:22;-1.9;83.4
67893;DHT22;54688;52.376;16.744;2024-01-30T01:32:25;-1.8;82.5
67893;DHT22;54688;52.376;16.744;2024-01-30T01:35:27;-1.7;83.1
67893;DHT22;54688;52.376;16.744;2024-01-30T01:38:30;-1.6;82.7
67893;DHT22;54688;52.376;16.744;2024-01-30T01:41:32;-1.5;82.9
67893;DHT22;54688;52.376;16.744;2024-01-30T01:44:34;-1.4;83.1
67893;DHT22;54688;52.376;16.744;2024-01-30T01:47:36;-1.4;82.8
67893;DHT22;54688;52.376;16.744;2024-01-30T01:50:39;-1.3;82.5
67893;DHT22;54688;52.376;16.744;2024-01-30T01:53:41;-1.3;82.5
67893;DHT22;54688;52.376;16.744;2024-01-30T01:56:44;-1.3;82
67893;DHT22;54688;52.376;16.744;2024-01-30T01:59:46;-1.3;81.5
67893;DHT22;54688;52.376;16.744;2024-01-30T02:02:49;-1.5;81.1
67893;DHT22;54688;52.376;16.744;2024-01-30T02:05:53;-1.5;81.1
67893;DHT22;54688;52.376;16.744;2024-01-30T02:08:56;-1.5;81.2
67893;DHT22;54688;52.376;16.744;2024-01-30T02:11:58;-1.6;81.1
67893;DHT22;54688;52.376;16.744;2024-01-30T02:15:00;-1.6;81
67893;DHT22;54688;52.376;16.744;2024-01-30T02:18:02;-1.7;80.7
67893;DHT22;54688;52.376;16.744;2024-01-30T02:21:04;-1.8;80.7
67893;DHT22;54688;52.376;16.744;2024-01-30T02:24:06;-1.9;80.7
67893;DHT22;54688;52.376;16.744;2024-01-30T02:27:09;-1.9;80.7
67893;DHT22;54688;52.376;16.744;2024-01-30T02:30:12;-1.9;80.4
67893;DHT22;54688;52.376;16.744;2024-01-30T02:33:15;-2;80.3
67893;DHT22;54688;52.376;16.744;2024-01-30T02:36:17;-2.1;80.3
67893;DHT22;54688;52.376;16.744;2024-01-30T02:39:20;-2.1;80.3
67893;DHT22;54688;52.376;16.744;2024-01-30T02:42:23;-2.2;80.3
67893;DHT22;54688;52.376;16.744;2024-01-30T02:45:24;-2.2;80.3
67893;DHT22;54688;52.376;16.744;2024-01-30T02:48:27;-2.2;80.4
67893;DHT22;54688;52.376;16.744;2024-01-30T02:51:29;-2.3;80.1
67893;DHT22;54688;52.376;16.744;2024-01-30T02:54:32;-2.3;80.4
67893;DHT22;54688;52.376;16.744;2024-01-30T02:57:34;-2.3;80.4
67893;DHT22;54688;52.376;16.744;2024-01-30T03:00:36;-2.3;80.5
67893;DHT22;54688;52.376;16.744;2024-01-30T03:03:39;-2.3;80.8
67893;DHT22;54688;52.376;16.744;2024-01-30T03:06:44;-2.3;80.9
67893;DHT22;54688;52.376;16.744;2024-01-30T03:09:46;-2.3;80.7
67893;DHT22;54688;52.376;16.744;2024-01-30T03:12:49;-2.4;80.5
67893;DHT22;54688;52.376;16.744;2024-01-30T03:15:51;-2.4;80.5
67893;DHT22;54688;52.376;16.744;2024-01-30T03:18:53;-2.4;80.7
67893;DHT22;54688;52.376;16.744;2024-01-30T03:21:55;-2.4;81.1
67893;DHT22;54688;52.376;16.744;2024-01-30T03:24:58;-2.4;80.3
67893;DHT22;54688;52.376;16.744;2024-01-30T03:28:00;-2.4;80.4
67893;DHT22;54688;52.376;16.744;2024-01-30T03:31:03;-2.4;80.7
67893;DHT22;54688;52.376;16.744;2024-01-30T03:34:05;-2.4;80.7
67893;DHT22;54688;52.376;16.744;2024-01-30T03:37:07;-2.4;80.7
67893;DHT22;54688;52.376;16.744;2024-01-30T03:40:10;-2.4;81.1
67893;DHT22;54688;52.376;16.744;2024-01-30T03:43:12;-2.4;81
67893;DHT22;54688;52.376;16.744;2024-01-30T03:46:14;-2.3;81.3
67893;DHT22;54688;52.376;16.744;2024-01-30T03:49:17;-2.3;81.5
67893;DHT22;54688;52.376;16.744;2024-01-30T03:52:19;-2.3;81.5
67893;DHT22;54688;52.376;16.744;2024-01-30T03:55:21;-2.2;81.9
67893;DHT22;54688;52.376;16.744;2024-01-30T03:58:25;-2.1;82.7
67893;DHT22;54688;52.376;16.744;2024-01-30T04:01:27;-2.1;82.1
67893;DHT22;54688;52.376;16.744;2024-01-30T04:04:30;-2;82.3
67893;DHT22;54688;52.376;16.744;2024-01-30T04:07:32;-1.9;82.4
67893;DHT22;54688;52.376;16.744;2024-01-30T04:10:34;-1.8;82.6
67893;DHT22;54688;52.376;16.744;2024-01-30T04:13:37;-1.8;82.2
67893;DHT22;54688;52.376;16.744;2024-01-30T04:16:39;-1.7;81.6
67893;DHT22;54688;52.376;16.744;2024-01-30T04:19:41;-1.7;81.5
67893;DHT22;54688;52.376;16.744;2024-01-30T04:22:44;-1.8;81.1
67893;DHT22;54688;52.376;16.744;2024-01-30T04:25:46;-1.7;81.6
67893;DHT22;54688;52.376;16.744;2024-01-30T04:28:49;-1.6;81.9
67893;DHT22;54688;52.376;16.744;2024-01-30T04:31:51;-1.6;82.3
67893;DHT22;54688;52.376;16.744;2024-01-30T04:34:53;-1.5;82.2
67893;DHT22;54688;52.376;16.744;2024-01-30T04:37:56;-1.4;82.6
67893;DHT22;54688;52.376;16.744;2024-01-30T04:40:58;-1.3;82.7
67893;DHT22;54688;52.376;16.744;2024-01-30T04:44:00;-1.3;82.7
67893;DHT22;54688;52.376;16.744;2024-01-30T04:47:02;-1.2;82.7
67893;DHT22;54688;52.376;16.744;2024-01-30T04:50:04;-1.1;82.6
67893;DHT22;54688;52.376;16.744;2024-01-30T04:53:08;-1.1;82.1
67893;DHT22;54688;52.376;16.744;2024-01-30T04:56:10;-1.1;81.8
67893;DHT22;54688;52.376;16.744;2024-01-30T04:59:12;-1.1;81.2
67893;DHT22;54688;52.376;16.744;2024-01-30T05:02:14;-1.2;81
67893;DHT22;54688;52.376;16.744;2024-01-30T05:05:16;-1.3;80.8
67893;DHT22;54688;52.376;16.744;2024-01-30T05:08:19;-1.4;80.6
67893;DHT22;54688;52.376;16.744;2024-01-30T05:11:22;-1.5;80.3
67893;DHT22;54688;52.376;16.744;2024-01-30T05:14:24;-1.5;80.6
67893;DHT22;54688;52.376;16.744;2024-01-30T05:17:26;-1.6;80.5
67893;DHT22;54688;52.376;16.744;2024-01-30T05:20:28;-1.6;80.6
67893;DHT22;54688;52.376;16.744;2024-01-30T05:23:32;-1.6;80.6
67893;DHT22;54688;52.376;16.744;2024-01-30T05:26:34;-1.6;80.7
67893;DHT22;54688;52.376;16.744;2024-01-30T05:29:36;-1.6;80.8
67893;DHT22;54688;52.376;16.744;2024-01-30T05:32:39;-1.6;80.7
67893;DHT22;54688;52.376;16.744;2024-01-30T05:35:41;-1.6;81
67893;DHT22;54688;52.376;16.744;2024-01-30T05:38:44;-1.6;80.8
67893;DHT22;54688;52.376;16.744;2024-01-30T05:41:46;-1.6;80.7
67893;DHT22;54688;52.376;16.744;2024-01-30T05:44:48;-1.6;81.2
67893;DHT22;54688;52.376;16.744;2024-01-30T05:47:50;-1.6;81
67893;DHT22;54688;52.376;16.744;2024-01-30T05:50:52;-1.6;81.1
67893;DHT22;54688;52.376;16.744;2024-01-30T05:53:54;-1.5;81
67893;DHT22;54688;52.376;16.744;2024-01-30T05:56:57;-1.5;81
67893;DHT22;54688;52.376;16.744;2024-01-30T05:59:59;-1.5;80.5
67893;DHT22;54688;52.376;16.744;2024-01-30T06:03:01;-1.5;81.3
67893;DHT22;54688;52.376;16.744;2024-01-30T06:06:03;-1.5;81.1
67893;DHT22;54688;52.376;16.744;2024-01-30T06:09:06;-1.4;81.1
67893;DHT22;54688;52.376;16.744;2024-01-30T06:12:08;-1.4;81.2
67893;DHT22;54688;52.376;16.744;2024-01-30T06:15:10;-1.3;81.6
67893;DHT22;54688;52.376;16.744;2024-01-30T06:18:12;-1.3;81.2
67893;DHT22;54688;52.376;16.744;2024-01-30T06:21:15;-1.3;81.2
67893;DHT22;54688;52.376;16.744;2024-01-30T06:24:17;-1.2;81.1
67893;DHT22;54688;52.376;16.744;2024-01-30T06:27:20;-1.2;81.2
67893;DHT22;54688;52.376;16.744;2024-01-30T06:30:22;-1.2;80.1
67893;DHT22;54688;52.376;16.744;2024-01-30T06:33:24;-1.2;80.7
67893;DHT22;54688;52.376;16.744;2024-01-30T06:36:26;-1.2;80.4
67893;DHT22;54688;52.376;16.744;2024-01-30T06:39:28;-1.2;80.4
67893;DHT22;54688;52.376;16.744;2024-01-30T06:42:30;-1.2;80.7
67893;DHT22;54688;52.376;16.744;2024-01-30T06:45:32;-1.2;80.5
67893;DHT22;54688;52.376;16.744;2024-01-30T06:48:34;-1.2;80.6
67893;DHT22;54688;52.376;16.744;2024-01-30T06:51:36;-1.1;80.8
67893;DHT22;54688;52.376;16.744;2024-01-30T06:54:39;-1.1;80.7
67893;DHT22;54688;52.376;16.744;2024-01-30T06:57:41;-1;80.7
67893;DHT22;54688;52.376;16.744;2024-01-30T07:00:44;-1;81.3
67893;DHT22;54688;52.376;16.744;2024-01-30T07:03:46;-0.9;80.8
67893;DHT22;54688;52.376;16.744;2024-01-30T07:06:48;-0.9;80.6
67893;DHT22;54688;52.376;16.744;2024-01-30T07:09:51;-0.9;80.7
67893;DHT22;54688;52.376;16.744;2024-01-30T07:12:53;-0.8;80.7
67893;DHT22;54688;52.376;16.744;2024-01-30T07:15:54;-0.8;80.7
67893;DHT22;54688;52.376;16.744;2024-01-30T07:18:57;-0.8;80.4
67893;DHT22;54688;52.376;16.744;2024-01-30T07:22:00;-0.8;80.4
67893;DHT22;54688;52.376;16.744;2024-01-30T07:25:03;-0.7;80.6
67893;DHT22;54688;52.376;16.744;2024-01-30T07:28:05;-0.7;80.7
67893;DHT22;54688;52.376;16.744;2024-01-30T07:31:07;-0.7;80.5
67893;DHT22;54688;52.376;16.744;2024-01-30T07:34:09;-0.6;80.8
67893;DHT22;54688;52.376;16.744;2024-01-30T07:37:11;-0.6;81.8
67893;DHT22;54688;52.376;16.744;2024-01-30T07:40:14;-0.5;81
67893;DHT22;54688;52.376;16.744;2024-01-30T07:43:16;-0.3;81.1
67893;DHT22;54688;52.376;16.744;2024-01-30T07:46:18;-0.3;81
67893;DHT22;54688;52.376;16.744;2024-01-30T07:49:20;-0.2;80.8
67893;DHT22;54688;52.376;16.744;2024-01-30T07:52:22;-0.1;81.2
67893;DHT22;54688;52.376;16.744;2024-01-30T07:55:25;0;81
67893;DHT22;54688;52.376;16.744;2024-01-30T07:58:27;0;81.3
67893;DHT22;54688;52.376;16.744;2024-01-30T08:01:29;0.2;81.4
67893;DHT22;54688;52.376;16.744;2024-01-30T08:04:31;0.3;81.1
67893;DHT22;54688;52.376;16.744;2024-01-30T08:07:34;0.3;80.6
67893;DHT22;54688;52.376;16.744;2024-01-30T08:10:36;0.4;80.5
67893;DHT22;54688;52.376;16.744;2024-01-30T08:13:38;0.5;80.5
67893;DHT22;54688;52.376;16.744;2024-01-30T08:16:40;0.7;80.8
67893;DHT22;54688;52.376;16.744;2024-01-30T08:19:43;0.8;81.4
67893;DHT22;54688;52.376;16.744;2024-01-30T08:22:44;0.9;79.7
67893;DHT22;54688;52.376;16.744;2024-01-30T08:25:46;1;80.2
67893;DHT22;54688;52.376;16.744;2024-01-30T08:28:49;1;79.5
67893;DHT22;54688;52.376;16.744;2024-01-30T08:31:51;1.2;79.3
67893;DHT22;54688;52.376;16.744;2024-01-30T08:34:53;1.2;79.6
67893;DHT22;54688;52.376;16.744;2024-01-30T08:37:56;1.3;79.4
67893;DHT22;54688;52.376;16.744;2024-01-30T08:40:57;1.5;79.3
67893;DHT22;54688;52.376;16.744;2024-01-30T08:43:59;1.6;78.1
67893;DHT22;54688;52.376;16.744;2024-01-30T08:47:02;1.7;78.2
67893;DHT22;54688;52.376;16.744;2024-01-30T08:50:04;1.8;77.6
67893;DHT22;54688;52.376;16.744;2024-01-30T08:53:07;1.9;77.3
67893;DHT22;54688;52.376;16.744;2024-01-30T08:56:09;2;77
67893;DHT22;54688;52.376;16.744;2024-01-30T08:59:12;2.1;76.7
67893;DHT22;54688;52.376;16.744;2024-01-30T09:02:15;2.2;76.5
67893;DHT22;54688;52.376;16.744;2024-01-30T09:05:17;2.3;76.1
67893;DHT22;54688;52.376;16.744;2024-01-30T09:08:20;2.4;75.7
67893;DHT22;54688;52.376;16.744;2024-01-30T09:11:22;2.5;75.3
67893;DHT22;54688;52.376;16.744;2024-01-30T09:14:24;2.5;75
67893;DHT22;54688;52.376;16.744;2024-01-30T09:17:26;2.6;75
67893;DHT22;54688;52.376;16.744;2024-01-30T09:20:28;2.7;74.6
67893;DHT22;54688;52.376;16.744;2024-01-30T09:23:30;2.7;74.7
67893;DHT22;54688;52.376;16.744;2024-01-30T09:26:32;2.8;74.2
67893;DHT22;54688;52.376;16.744;2024-01-30T09:29:34;2.9;74.1
67893;DHT22;54688;52.376;16.744;2024-01-30T09:32:36;2.9;73.9
67893;DHT22;54688;52.376;16.744;2024-01-30T09:35:38;2.9;73.6
67893;DHT22;54688;52.376;16.744;2024-01-30T09:38:41;3;72.9
67893;DHT22;54688;52.376;16.744;2024-01-30T09:41:44;3;73.6
67893;DHT22;54688;52.376;16.744;2024-01-30T09:44:50;3.1;73
67893;DHT22;54688;52.376;16.744;2024-01-30T09:47:53;3.1;72.6
67893;DHT22;54688;52.376;16.744;2024-01-30T09:50:55;3.1;72.5
67893;DHT22;54688;52.376;16.744;2024-01-30T09:53:59;3.2;72.3
67893;DHT22;54688;52.376;16.744;2024-01-30T09:57:01;3.2;72.2
67893;DHT22;54688;52.376;16.744;2024-01-30T10:00:05;3.2;71.9
67893;DHT22;54688;52.376;16.744;2024-01-30T10:03:08;3.2;71.9
67893;DHT22;54688;52.376;16.744;2024-01-30T10:06:10;3.2;71.9
67893;DHT22;54688;52.376;16.744;2024-01-30T10:09:13;3.3;71.7
67893;DHT22;54688;52.376;16.744;2024-01-30T10:12:16;3.3;71.9
67893;DHT22;54688;52.376;16.744;2024-01-30T10:15:18;3.4;71.2
67893;DHT22;54688;52.376;16.744;2024-01-30T10:18:22;3.4;71.8
67893;DHT22;54688;52.376;16.744;2024-01-30T10:21:23;3.4;71.5
67893;DHT22;54688;52.376;16.744;2024-01-30T10:24:26;3.5;70.4
67893;DHT22;54688;52.376;16.744;2024-01-30T10:27:28;3.6;70.9
67893;DHT22;54688;52.376;16.744;2024-01-30T10:30:30;3.6;70
67893;DHT22;54688;52.376;16.744;2024-01-30T10:33:32;3.7;70.3
67893;DHT22;54688;52.376;16.744;2024-01-30T10:36:38;3.7;71
67893;DHT22;54688;52.376;16.744;2024-01-30T10:39:42;3.8;70.3
67893;DHT22;54688;52.376;16.744;2024-01-30T10:42:46;3.8;70.4
67893;DHT22;54688;52.376;16.744;2024-01-30T10:45:49;3.9;70.4
67893;DHT22;54688;52.376;16.744;2024-01-30T10:48:56;4;70.2
67893;DHT22;54688;52.376;16.744;2024-01-30T10:51:59;4.1;69.9
67893;DHT22;54688;52.376;16.744;2024-01-30T10:55:01;4.2;70.5
67893;DHT22;54688;52.376;16.744;2024-01-30T10:58:06;4.2;69.7
67893;DHT22;54688;52.376;16.744;2024-01-30T11:01:09;4.2;69.9
67893;DHT22;54688;52.376;16.744;2024-01-30T11:04:12;4.3;70
67893;DHT22;54688;52.376;16.744;2024-01-30T11:07:15;4.3;69.9
67893;DHT22;54688;52.376;16.744;2024-01-30T11:10:17;4.4;69.6
67893;DHT22;54688;52.376;16.744;2024-01-30T11:13:19;4.5;69.5
67893;DHT22;54688;52.376;16.744;2024-01-30T11:16:21;4.5;69.3
67893;DHT22;54688;52.376;16.744;2024-01-30T11:19:24;4.6;69.1
67893;DHT22;54688;52.376;16.744;2024-01-30T11:22:26;4.7;69.1
67893;DHT22;54688;52.376;16.744;2024-01-30T11:25:32;4.8;68.6
67893;DHT22;54688;52.376;16.744;2024-01-30T11:28:36;4.9;68.8
67893;DHT22;54688;52.376;16.744;2024-01-30T11:31:40;4.9;67.9
67893;DHT22;54688;52.376;16.744;2024-01-30T11:34:52;5;68.3
67893;DHT22;54688;52.376;16.744;2024-01-30T11:37:55;5.1;67.9
67893;DHT22;54688;52.376;16.744;2024-01-30T11:41:00;5.2;67.9
67893;DHT22;54688;52.376;16.744;2024-01-30T11:44:03;5.2;67.7
67893;DHT22;54688;52.376;16.744;2024-01-30T11:47:05;5.3;67.2
67893;DHT22;54688;52.376;16.744;2024-01-30T11:50:08;5.4;66.9
67893;DHT22;54688;52.376;16.744;2024-01-30T11:53:10;5.5;67.2
67893;DHT22;54688;52.376;16.744;2024-01-30T11:56:13;5.5;67.3
67893;DHT22;54688;52.376;16.744;2024-01-30T11:59:15;5.6;66.9
67893;DHT22;54688;52.376;16.744;2024-01-30T12:02:17;5.7;66.8
67893;DHT22;54688;52.376;16.744;2024-01-30T12:05:20;5.7;66.6
67893;DHT22;54688;52.376;16.744;2024-01-30T12:08:23;5.8;66.4
67893;DHT22;54688;52.376;16.744;2024-01-30T12:11:25;5.8;66.1
67893;DHT22;54688;52.376;16.744;2024-01-30T12:14:27;5.9;65
67893;DHT22;54688;52.376;16.744;2024-01-30T12:17:30;5.9;66.9
67893;DHT22;54688;52.376;16.744;2024-01-30T12:20:33;6;66.1
67893;DHT22;54688;52.376;16.744;2024-01-30T12:23:36;6;65.8
67893;DHT22;54688;52.376;16.744;2024-01-30T12:26:38;6.1;66
67893;DHT22;54688;52.376;16.744;2024-01-30T12:29:41;6.1;65.8
67893;DHT22;54688;52.376;16.744;2024-01-30T12:32:44;6.1;65.6
67893;DHT22;54688;52.376;16.744;2024-01-30T12:35:47;6.2;65.6
67893;DHT22;54688;52.376;16.744;2024-01-30T12:38:49;6.3;65.6
67893;DHT22;54688;52.376;16.744;2024-01-30T12:41:52;6.3;65.3
67893;DHT22;54688;52.376;16.744;2024-01-30T12:44:56;6.4;65.3
67893;DHT22;54688;52.376;16.744;2024-01-30T12:47:58;6.4;65.2
67893;DHT22;54688;52.376;16.744;2024-01-30T12:51:01;6.5;65.1
67893;DHT22;54688;52.376;16.744;2024-01-30T12:54:04;6.6;64.9
67893;DHT22;54688;52.376;16.744;2024-01-30T12:57:08;6.6;64.9
67893;DHT22;54688;52.376;16.744;2024-01-30T13:00:11;6.7;64.8
67893;DHT22;54688;52.376;16.744;2024-01-30T13:03:14;6.8;64.9
67893;DHT22;54688;52.376;16.744;2024-01-30T13:06:16;6.9;64.6
67893;DHT22;54688;52.376;16.744;2024-01-30T13:09:18;6.9;64.1
67893;DHT22;54688;52.376;16.744;2024-01-30T13:12:21;7;64.6
67893;DHT22;54688;52.376;16.744;2024-01-30T13:15:23;7.1;63.2
67893;DHT22;54688;52.376;16.744;2024-01-30T13:18:25;7.1;63.5
67893;DHT22;54688;52.376;16.744;2024-01-30T13:21:27;7.2;63.1
67893;DHT22;54688;52.376;16.744;2024-01-30T13:24:29;7.3;62.9
67893;DHT22;54688;52.376;16.744;2024-01-30T13:27:31;7.4;63.1
67893;DHT22;54688;52.376;16.744;2024-01-30T13:30:34;7.5;62.3
67893;DHT22;54688;52.376;16.744;2024-01-30T13:33:36;7.6;62.4
67893;DHT22;54688;52.376;16.744;2024-01-30T13:36:38;7.7;62.2
67893;DHT22;54688;52.376;16.744;2024-01-30T13:39:40;7.7;62
67893;DHT22;54688;52.376;16.744;2024-01-30T13:42:42;7.8;62
67893;DHT22;54688;52.376;16.744;2024-01-30T13:45:44;7.8;61.7
67893;DHT22;54688;52.376;16.744;2024-01-30T13:48:46;7.8;61.8
67893;DHT22;54688;52.376;16.744;2024-01-30T13:51:48;7.8;61.2
67893;DHT22;54688;52.376;16.744;2024-01-30T13:54:50;7.8;61.2
67893;DHT22;54688;52.376;16.744;2024-01-30T13:57:53;7.8;62.1
67893;DHT22;54688;52.376;16.744;2024-01-30T14:00:55;7.8;60.5
67893;DHT22;54688;52.376;16.744;2024-01-30T14:03:58;7.8;61.3
67893;DHT22;54688;52.376;16.744;2024-01-30T14:07:00;7.8;61.6
67893;DHT22;54688;52.376;16.744;2024-01-30T14:10:02;7.8;61.4
67893;DHT22;54688;52.376;16.744;2024-01-30T14:13:04;7.8;61
67893;DHT22;54688;52.376;16.744;2024-01-30T14:16:07;7.9;61.3
67893;DHT22;54688;52.376;16.744;2024-01-30T14:19:09;7.9;61.3
67893;DHT22;54688;52.376;16.744;2024-01-30T14:22:12;8;60.9
67893;DHT22;54688;52.376;16.744;2024-01-30T14:25:14;8;60.7
67893;DHT22;54688;52.376;16.744;2024-01-30T14:28:17;8;60.2
67893;DHT22;54688;52.376;16.744;2024-01-30T14:31:19;8;59.1
67893;DHT22;54688;52.376;16.744;2024-01-30T14:34:22;8.1;59.6
67893;DHT22;54688;52.376;16.744;2024-01-30T14:37:24;8;59.6
67893;DHT22;54688;52.376;16.744;2024-01-30T14:40:26;7.9;60
67893;DHT22;54688;52.376;16.744;2024-01-30T14:43:29;7.8;60.7
67893;DHT22;54688;52.376;16.744;2024-01-30T14:46:31;7.7;61
67893;DHT22;54688;52.376;16.744;2024-01-30T14:49:33;7.5;62
67893;DHT22;54688;52.376;16.744;2024-01-30T14:52:36;7.4;62.5
67893;DHT22;54688;52.376;16.744;2024-01-30T14:55:38;7.3;63.5
67893;DHT22;54688;52.376;16.744;2024-01-30T14:58:40;7.2;64.3
67893;DHT22;54688;52.376;16.744;2024-01-30T15:01:42;7;64.6
67893;DHT22;54688;52.376;16.744;2024-01-30T15:04:45;6.9;64.7
67893;DHT22;54688;52.376;16.744;2024-01-30T15:07:47;6.8;64.9
67893;DHT22;54688;52.376;16.744;2024-01-30T15:10:49;6.7;65.8
67893;DHT22;54688;52.376;16.744;2024-01-30T15:13:52;6.6;67
67893;DHT22;54688;52.376;16.744;2024-01-30T15:16:54;6.4;67.3
67893;DHT22;54688;52.376;16.744;2024-01-30T15:19:57;6.3;67
67893;DHT22;54688;52.376;16.744;2024-01-30T15:22:58;6.2;66.6
67893;DHT22;54688;52.376;16.744;2024-01-30T15:26:01;6.1;67.5
67893;DHT22;54688;52.376;16.744;2024-01-30T15:29:03;6;67.8
67893;DHT22;54688;52.376;16.744;2024-01-30T15:32:06;5.8;68.2
67893;DHT22;54688;52.376;16.744;2024-01-30T15:35:08;5.7;68.8
67893;DHT22;54688;52.376;16.744;2024-01-30T15:38:11;5.6;69.4
67893;DHT22;54688;52.376;16.744;2024-01-30T15:41:14;5.5;69.7
67893;DHT22;54688;52.376;16.744;2024-01-30T15:44:16;5.4;70.1
67893;DHT22;54688;52.376;16.744;2024-01-30T15:47:19;5.3;70.9
67893;DHT22;54688;52.376;16.744;2024-01-30T15:50:21;5.2;70.4
67893;DHT22;54688;52.376;16.744;2024-01-30T15:53:23;5.1;70.1
67893;DHT22;54688;52.376;16.744;2024-01-30T15:56:28;5;70.2
67893;DHT22;54688;52.376;16.744;2024-01-30T15:59:30;4.8;71.8
67893;DHT22;54688;52.376;16.744;2024-01-30T16:02:32;4.8;71.5
67893;DHT22;54688;52.376;16.744;2024-01-30T16:05:34;4.7;71.9
67893;DHT22;54688;52.376;16.744;2024-01-30T16:08:37;4.5;72
67893;DHT22;54688;52.376;16.744;2024-01-30T16:11:40;4.4;72.4
67893;DHT22;54688;52.376;16.744;2024-01-30T16:14:43;4.3;72.6
67893;DHT22;54688;52.376;16.744;2024-01-30T16:17:46;4.2;72.3
67893;DHT22;54688;52.376;16.744;2024-01-30T16:20:48;4.2;72.8
67893;DHT22;54688;52.376;16.744;2024-01-30T16:23:52;4.1;72.3
67893;DHT22;54688;52.376;16.744;2024-01-30T16:26:54;4;73.3
67893;DHT22;54688;52.376;16.744;2024-01-30T16:29:57;3.9;74
67893;DHT22;54688;52.376;16.744;2024-01-30T16:32:58;3.8;73.7
67893;DHT22;54688;52.376;16.744;2024-01-30T16:36:01;3.8;73.9
67893;DHT22;54688;52.376;16.744;2024-01-30T16:39:04;3.7;74.2
67893;DHT22;54688;52.376;16.744;2024-01-30T16:42:06;3.7;74.3
67893;DHT22;54688;52.376;16.744;2024-01-30T16:45:10;3.6;74.4
67893;DHT22;54688;52.376;16.744;2024-01-30T16:48:12;3.6;74.6
67893;DHT22;54688;52.376;16.744;2024-01-30T16:51:14;3.5;74.7
67893;DHT22;54688;52.376;16.744;2024-01-30T16:54:16;3.4;74.9
67893;DHT22;54688;52.376;16.744;2024-01-30T16:57:19;3.4;74.3
67893;DHT22;54688;52.376;16.744;2024-01-30T17:00:21;3.3;74.6
67893;DHT22;54688;52.376;16.744;2024-01-30T17:03:24;3.2;74.5
67893;DHT22;54688;52.376;16.744;2024-01-30T17:06:27;3.1;76.1
67893;DHT22;54688;52.376;16.744;2024-01-30T17:09:29;3.1;75.7
67893;DHT22;54688;52.376;16.744;2024-01-30T17:12:31;3.1;75.8
67893;DHT22;54688;52.376;16.744;2024-01-30T17:15:33;3.1;75.8
67893;DHT22;54688;52.376;16.744;2024-01-30T17:18:36;3;75.6
67893;DHT22;54688;52.376;16.744;2024-01-30T17:21:38;3;76.5
67893;DHT22;54688;52.376;16.744;2024-01-30T17:24:40;3;75.7
67893;DHT22;54688;52.376;16.744;2024-01-30T17:27:43;3;75.5
67893;DHT22;54688;52.376;16.744;2024-01-30T17:30:45;3;76.2
67893;DHT22;54688;52.376;16.744;2024-01-30T17:33:48;3;75.5
67893;DHT22;54688;52.376;16.744;2024-01-30T17:36:50;3;76.4
67893;DHT22;54688;52.376;16.744;2024-01-30T17:39:52;3.1;75.6
67893;DHT22;54688;52.376;16.744;2024-01-30T17:42:55;3;75.6
67893;DHT22;54688;52.376;16.744;2024-01-30T17:45:57;3.1;75.7
67893;DHT22;54688;52.376;16.744;2024-01-30T17:49:00;3.1;75.4
67893;DHT22;54688;52.376;16.744;2024-01-30T17:52:02;3.1;74.7
67893;DHT22;54688;52.376;16.744;2024-01-30T17:55:07;3.2;75.5
67893;DHT22;54688;52.376;16.744;2024-01-30T17:58:09;3.2;75.7
67893;DHT22;54688;52.376;16.744;2024-01-30T18:04:11;3.1;75.5
67893;DHT22;54688;52.376;16.744;2024-01-30T18:07:14;3.1;75.6
67893;DHT22;54688;52.376;16.744;2024-01-30T18:10:17;3.1;75.6
67893;DHT22;54688;52.376;16.744;2024-01-30T18:13:19;3.1;76.4
67893;DHT22;54688;52.376;16.744;2024-01-30T18:16:21;3;76
67893;DHT22;54688;52.376;16.744;2024-01-30T18:19:22;3;76
67893;DHT22;54688;52.376;16.744;2024-01-30T18:22:25;2.9;77
67893;DHT22;54688;52.376;16.744;2024-01-30T18:25:27;2.9;76.2
67893;DHT22;54688;52.376;16.744;2024-01-30T18:28:30;2.8;76.3
67893;DHT22;54688;52.376;16.744;2024-01-30T18:31:32;2.8;76.5
67893;DHT22;54688;52.376;16.744;2024-01-30T18:34:34;2.7;76.7
67893;DHT22;54688;52.376;16.744;2024-01-30T18:37:37;2.7;77.4
67893;DHT22;54688;52.376;16.744;2024-01-30T18:40:39;2.7;77
67893;DHT22;54688;52.376;16.744;2024-01-30T18:43:41;2.7;77.4
67893;DHT22;54688;52.376;16.744;2024-01-30T18:46:44;2.7;77.3
67893;DHT22;54688;52.376;16.744;2024-01-30T18:49:46;2.8;76.9
67893;DHT22;54688;52.376;16.744;2024-01-30T18:52:50;2.8;76.4
67893;DHT22;54688;52.376;16.744;2024-01-30T18:55:53;2.8;76.1
67893;DHT22;54688;52.376;16.744;2024-01-30T18:58:55;2.8;75.9
67893;DHT22;54688;52.376;16.744;2024-01-30T19:01:58;2.9;75.9
67893;DHT22;54688;52.376;16.744;2024-01-30T19:04:59;2.8;75.9
67893;DHT22;54688;52.376;16.744;2024-01-30T19:08:02;2.8;75.9
67893;DHT22;54688;52.376;16.744;2024-01-30T19:11:05;2.8;75.9
67893;DHT22;54688;52.376;16.744;2024-01-30T19:14:08;2.9;75.9
67893;DHT22;54688;52.376;16.744;2024-01-30T19:17:10;2.8;75.9
67893;DHT22;54688;52.376;16.744;2024-01-30T19:20:12;2.9;76
67893;DHT22;54688;52.376;16.744;2024-01-30T19:23:15;2.8;76.2
67893;DHT22;54688;52.376;16.744;2024-01-30T19:26:17;2.9;76.7
67893;DHT22;54688;52.376;16.744;2024-01-30T19:29:19;2.8;75.1
67893;DHT22;54688;52.376;16.744;2024-01-30T19:32:22;2.8;75.9
67893;DHT22;54688;52.376;16.744;2024-01-30T19:35:24;2.8;75.1
67893;DHT22;54688;52.376;16.744;2024-01-30T19:38:27;2.8;75.8
67893;DHT22;54688;52.376;16.744;2024-01-30T19:41:29;2.8;75.8
67893;DHT22;54688;52.376;16.744;2024-01-30T19:44:31;2.8;75.9
67893;DHT22;54688;52.376;16.744;2024-01-30T19:50:33;2.8;75.4
67893;DHT22;54688;52.376;16.744;2024-01-30T19:53:36;2.8;75
67893;DHT22;54688;52.376;16.744;2024-01-30T19:56:38;2.8;74.6